NKO VNLK-VNLK
Flight info
| Callsign | NKO |
|---|---|
| Flight time | 0h 1m |
| Altitude | 12500 |
| Route | DCT |
| Aircraft | DA40/L-SBDGRY/S |
Departure
| Time | 2026-04-06 14:33 |
|---|---|
| Airport | Tenzing-Hillary Airport (VNLK) |
Arrival
| Time | 2026-04-06 14:34 |
|---|---|
| Airport | Tenzing-Hillary Airport (VNLK) |
| Time | Latitude | Longitude | Altitude | Speed | Heading |
|---|---|---|---|---|---|
| 2026-04-06 14:12 | 27.68752 | 86.73156 | 9450 ft | 0 kts | 276° |
| 2026-04-06 14:12 | 27.68733 | 86.73169 | 9448 ft | 0 kts | 248° |
| 2026-04-06 14:24 | 27.68733 | 86.73170 | 9445 ft | 0 kts | 248° |
| 2026-04-06 14:28 | 27.68736 | 86.73168 | 9446 ft | 4 kts | 25° |
| 2026-04-06 14:28 | 27.68752 | 86.73177 | 9448 ft | 0 kts | 312° |
| 2026-04-06 14:29 | 27.68757 | 86.73174 | 9449 ft | 0 kts | 323° |
| 2026-04-06 14:31 | 27.68758 | 86.73174 | 9452 ft | 2 kts | 347° |
| 2026-04-06 14:32 | 27.68770 | 86.73124 | 9448 ft | 14 kts | 240° |
| 2026-04-06 14:32 | 27.68592 | 86.72779 | 9265 ft | 89 kts | 240° |
| 2026-04-06 14:32 | 27.68094 | 86.72423 | 9434 ft | 91 kts | 188° |
| 2026-04-06 14:32 | 27.67485 | 86.72328 | 9671 ft | 87 kts | 193° |
| 2026-04-06 14:33 | 27.66991 | 86.71866 | 9818 ft | 99 kts | 234° |
| 2026-04-06 14:33 | 27.66631 | 86.71170 | 9853 ft | 110 kts | 260° |
| 2026-04-06 14:33 | 27.66983 | 86.70484 | 10087 ft | 102 kts | 339° |
| 2026-04-06 14:33 | 27.67623 | 86.70796 | 9882 ft | 115 kts | 56° |
| 2026-04-06 14:34 | 27.67992 | 86.71584 | 9444 ft | 113 kts | 60° |
| 2026-04-06 14:34 | 27.68356 | 86.72336 | 9130 ft | 94 kts | 64° |
| 2026-04-06 14:34 | 27.68639 | 86.72866 | 9303 ft | 61 kts | 60° |
| 2026-04-06 14:34 | 27.68782 | 86.73149 | 9452 ft | 21 kts | 89° |
| 2026-04-06 14:35 | 27.68770 | 86.73183 | 9446 ft | 0 kts | 232° |
| 2026-04-06 14:36 | 27.68769 | 86.73172 | 9447 ft | 0 kts | 308° |
| 2026-04-06 14:36 | 27.68767 | 86.73175 | 9447 ft | 4 kts | 306° |
| 2026-04-06 14:37 | 27.68766 | 86.73114 | 9444 ft | 20 kts | 243° |
| 2026-04-06 14:37 | 27.68559 | 86.72703 | 9249 ft | 94 kts | 238° |
| 2026-04-06 14:37 | 27.67925 | 86.72394 | 9277 ft | 112 kts | 187° |
| 2026-04-06 14:37 | 27.67125 | 86.72220 | 9359 ft | 122 kts | 199° |
| 2026-04-06 14:38 | 27.66375 | 86.71702 | 9271 ft | 132 kts | 218° |
| 2026-04-06 14:38 | 27.65882 | 86.70831 | 9245 ft | 133 kts | 258° |
| 2026-04-06 14:38 | 27.66037 | 86.69957 | 9681 ft | 100 kts | 314° |
| 2026-04-06 14:38 | 27.66753 | 86.70012 | 9627 ft | 125 kts | 30° |
| 2026-04-06 14:39 | 27.67505 | 86.70684 | 9330 ft | 146 kts | 53° |
| 2026-04-06 14:39 | 27.67940 | 86.71549 | 9253 ft | 117 kts | 50° |
| 2026-04-06 14:39 | 27.68349 | 86.72298 | 9149 ft | 103 kts | 61° |
| 2026-04-06 14:39 | 27.68658 | 86.72901 | 9322 ft | 64 kts | 60° |
| 2026-04-06 14:40 | 27.68771 | 86.73170 | 9446 ft | 18 kts | 167° |
| 2026-04-06 14:40 | 27.68766 | 86.73193 | 9448 ft | 0 kts | 57° |
| 2026-04-06 14:47 | 27.68772 | 86.73181 | 9446 ft | 6 kts | 269° |
| 2026-04-06 14:48 | 27.68748 | 86.73082 | 9431 ft | 32 kts | 241° |
| 2026-04-06 14:48 | 27.68498 | 86.72616 | 9298 ft | 89 kts | 231° |
| 2026-04-06 14:48 | 27.67974 | 86.72303 | 9448 ft | 95 kts | 184° |
| 2026-04-06 14:48 | 27.67253 | 86.72229 | 9510 ft | 111 kts | 194° |
| 2026-04-06 14:49 | 27.66750 | 86.71622 | 9522 ft | 120 kts | 256° |
| 2026-04-06 14:49 | 27.66997 | 86.70799 | 9694 ft | 113 kts | 316° |
| 2026-04-06 14:49 | 27.67711 | 86.70527 | 9790 ft | 117 kts | 19° |
| 2026-04-06 14:49 | 27.67993 | 86.71414 | 9444 ft | 132 kts | 62° |
| 2026-04-06 14:50 | 27.68743 | 86.71674 | 9524 ft | 111 kts | 355° |
| 2026-04-06 14:50 | 27.69320 | 86.71321 | 9631 ft | 91 kts | 292° |
| 2026-04-06 14:50 | 27.69097 | 86.70763 | 9640 ft | 84 kts | 193° |
| 2026-04-06 14:50 | 27.68471 | 86.70969 | 9335 ft | 95 kts | 136° |
| 2026-04-06 14:51 | 27.68083 | 86.71555 | 9017 ft | 103 kts | 95° |
| 2026-04-06 14:51 | 27.68295 | 86.72216 | 9097 ft | 85 kts | 54° |
| 2026-04-06 14:51 | 27.68569 | 86.72738 | 9231 ft | 68 kts | 62° |
| 2026-04-06 14:51 | 27.68737 | 86.73058 | 9410 ft | 29 kts | 62° |
| 2026-04-06 14:52 | 27.68757 | 86.73177 | 9444 ft | 12 kts | 118° |
| 2026-04-06 14:52 | 27.68773 | 86.73189 | 9444 ft | 0 kts | 231° |
| 2026-04-06 14:57 | 27.68778 | 86.73151 | 9449 ft | 12 kts | 267° |
| 2026-04-06 14:57 | 27.68640 | 86.72871 | 9291 ft | 80 kts | 240° |
| 2026-04-06 14:58 | 27.68146 | 86.72537 | 9420 ft | 89 kts | 181° |
| 2026-04-06 14:58 | 27.67496 | 86.72463 | 9515 ft | 100 kts | 195° |
| 2026-04-06 14:58 | 27.67005 | 86.71913 | 9594 ft | 108 kts | 251° |
| 2026-04-06 14:58 | 27.67023 | 86.71125 | 9778 ft | 92 kts | 276° |
| 2026-04-06 14:59 | 27.67253 | 86.70508 | 9864 ft | 86 kts | 287° |
| 2026-04-06 14:59 | 27.66997 | 86.70014 | 9881 ft | 89 kts | 182° |
| 2026-04-06 14:59 | 27.66706 | 86.70555 | 9812 ft | 91 kts | 64° |
| 2026-04-06 14:59 | 27.67231 | 86.70577 | 9305 ft | 107 kts | 274° |
| 2026-04-06 15:00 | 27.66940 | 86.70862 | 8945 ft | 106 kts | 49° |
| 2026-04-06 15:00 | 27.67632 | 86.71150 | 8724 ft | 106 kts | 35° |
| 2026-04-06 15:00 | 27.68054 | 86.71730 | 8839 ft | 86 kts | 59° |
| 2026-04-06 15:00 | 27.68304 | 86.72250 | 9001 ft | 67 kts | 58° |
| 2026-04-06 15:01 | 27.68342 | 86.72742 | 8915 ft | 88 kts | 145° |
| 2026-04-06 15:01 | 27.67963 | 86.72724 | 9274 ft | 31 kts | 194° |
| 2026-04-06 15:01 | 27.67583 | 86.72498 | 9032 ft | 94 kts | 221° |
| 2026-04-06 15:01 | 27.67396 | 86.71821 | 9160 ft | 85 kts | 276° |
| 2026-04-06 15:02 | 27.67750 | 86.71307 | 9182 ft | 92 kts | 342° |
| 2026-04-06 15:02 | 27.68182 | 86.71702 | 9209 ft | 98 kts | 90° |
| 2026-04-06 15:02 | 27.68383 | 86.72401 | 9181 ft | 93 kts | 53° |
| 2026-04-06 15:02 | 27.68672 | 86.72939 | 9342 ft | 58 kts | 56° |
| 2026-04-06 15:03 | 27.68778 | 86.73181 | 9451 ft | 13 kts | 152° |
| 2026-04-06 15:03 | 27.68745 | 86.73203 | 9449 ft | 0 kts | 55° |
| 2026-04-06 15:06 | 27.68756 | 86.73187 | 9450 ft | 8 kts | 281° |
| 2026-04-06 15:06 | 27.68767 | 86.73120 | 9450 ft | 16 kts | 240° |
| 2026-04-06 15:06 | 27.68576 | 86.72743 | 9275 ft | 88 kts | 238° |
| 2026-04-06 15:07 | 27.68060 | 86.72372 | 9441 ft | 93 kts | 185° |
| 2026-04-06 15:07 | 27.67392 | 86.72422 | 9583 ft | 99 kts | 184° |
| 2026-04-06 15:07 | 27.66838 | 86.71988 | 9612 ft | 109 kts | 246° |
| 2026-04-06 15:07 | 27.67019 | 86.71303 | 9809 ft | 92 kts | 305° |
| 2026-04-06 15:08 | 27.67380 | 86.70734 | 9705 ft | 92 kts | 323° |
| 2026-04-06 15:08 | 27.67920 | 86.70934 | 9606 ft | 102 kts | 73° |
| 2026-04-06 15:08 | 27.67983 | 86.71468 | 9406 ft | 105 kts | 82° |
| 2026-04-06 15:08 | 27.68291 | 86.72210 | 9165 ft | 103 kts | 56° |
| 2026-04-06 15:09 | 27.68628 | 86.72850 | 9288 ft | 76 kts | 59° |
| 2026-04-06 15:09 | 27.68796 | 86.73184 | 9450 ft | 16 kts | 66° |
| 2026-04-06 15:09 | 27.68798 | 86.73186 | 9450 ft | 2 kts | 54° |
| 2026-04-06 15:09 | 27.68794 | 86.73178 | 9450 ft | 5 kts | 184° |
| 2026-04-06 15:10 | 27.68756 | 86.73197 | 9452 ft | 0 kts | 97° |
| 2026-04-06 15:21 | 27.68754 | 86.73177 | 9449 ft | 5 kts | 335° |
| 2026-04-06 15:21 | 27.68778 | 86.73145 | 9447 ft | 1 kts | 246° |
| 2026-04-06 15:22 | 27.68716 | 86.73022 | 9390 ft | 53 kts | 240° |
| 2026-04-06 15:22 | 27.68387 | 86.72502 | 9338 ft | 92 kts | 214° |
| 2026-04-06 15:22 | 27.67780 | 86.72400 | 9554 ft | 91 kts | 166° |
| 2026-04-06 15:23 | 27.67099 | 86.72499 | 9628 ft | 103 kts | 193° |
| 2026-04-06 15:23 | 27.66657 | 86.71777 | 9484 ft | 124 kts | 249° |
| 2026-04-06 15:23 | 27.66463 | 86.70810 | 9543 ft | 123 kts | 267° |
| 2026-04-06 15:23 | 27.66209 | 86.69987 | 9821 ft | 109 kts | 198° |
| 2026-04-06 15:24 | 27.65595 | 86.70308 | 9964 ft | 94 kts | 115° |
| 2026-04-06 15:24 | 27.65878 | 86.70820 | 9976 ft | 93 kts | 7° |
| 2026-04-06 15:24 | 27.66569 | 86.70683 | 9623 ft | 102 kts | 347° |
| 2026-04-06 15:24 | 27.67215 | 86.70767 | 9504 ft | 90 kts | 26° |
| 2026-04-06 15:25 | 27.67603 | 86.71298 | 9236 ft | 92 kts | 69° |
| 2026-04-06 15:25 | 27.68048 | 86.71793 | 9118 ft | 96 kts | 46° |
| 2026-04-06 15:25 | 27.68399 | 86.72407 | 9148 ft | 92 kts | 60° |
| 2026-04-06 15:25 | 27.68674 | 86.72943 | 9348 ft | 57 kts | 59° |
| 2026-04-06 15:26 | 27.68766 | 86.73163 | 9454 ft | 16 kts | 145° |
| 2026-04-06 15:26 | 27.68735 | 86.73172 | 9454 ft | 0 kts | 234° |
| 2026-04-06 15:27 | 27.68740 | 86.73164 | 9454 ft | 6 kts | 14° |
| 2026-04-06 15:27 | 27.68770 | 86.73166 | 9455 ft | 3 kts | 327° |
| 2026-04-06 15:27 | 27.68774 | 86.73133 | 9455 ft | 0 kts | 248° |
| 2026-04-06 15:27 | 27.68774 | 86.73132 | 9455 ft | 2 kts | 248° |
| 2026-04-06 15:28 | 27.68701 | 86.72996 | 9378 ft | 50 kts | 240° |
| 2026-04-06 15:28 | 27.68400 | 86.72474 | 9336 ft | 89 kts | 224° |
| 2026-04-06 15:28 | 27.67831 | 86.72203 | 9467 ft | 95 kts | 181° |
| 2026-04-06 15:28 | 27.67162 | 86.72248 | 9611 ft | 96 kts | 179° |
| 2026-04-06 15:29 | 27.66629 | 86.71942 | 9653 ft | 104 kts | 237° |
| 2026-04-06 15:29 | 27.66455 | 86.71174 | 9630 ft | 77 kts | 302° |
| 2026-04-06 15:29 | 27.67038 | 86.70949 | 9464 ft | 101 kts | 357° |
| 2026-04-06 15:29 | 27.67705 | 86.71161 | 9377 ft | 102 kts | 30° |
| 2026-04-06 15:30 | 27.68123 | 86.71838 | 9212 ft | 111 kts | 69° |
| 2026-04-06 15:30 | 27.68476 | 86.72553 | 9213 ft | 95 kts | 60° |
| 2026-04-06 15:30 | 27.68755 | 86.73096 | 9445 ft | 55 kts | 57° |
| 2026-04-06 15:30 | 27.68807 | 86.73190 | 9455 ft | 0 kts | 59° |
| 2026-04-06 15:31 | 27.68799 | 86.73179 | 9456 ft | 7 kts | 46° |
| 2026-04-06 15:31 | 27.68757 | 86.73175 | 9451 ft | 7 kts | 328° |
| 2026-04-06 15:31 | 27.68745 | 86.73201 | 9452 ft | 3 kts | 238° |
| 2026-04-06 15:31 | 27.68730 | 86.73183 | 9452 ft | 0 kts | 174° |
| 2026-04-06 15:34 | 27.68739 | 86.73186 | 9452 ft | 0 kts | 253° |
| 2026-04-06 15:34 | 27.68760 | 86.73162 | 9454 ft | 8 kts | 333° |
| 2026-04-06 15:34 | 27.68719 | 86.73026 | 9395 ft | 52 kts | 240° |
| 2026-04-06 15:35 | 27.68413 | 86.72444 | 9051 ft | 114 kts | 237° |
| 2026-04-06 15:35 | 27.67950 | 86.71674 | 8863 ft | 103 kts | 221° |
| 2026-04-06 15:35 | 27.67671 | 86.71310 | 9160 ft | 79 kts | 259° |
| 2026-04-06 15:35 | 27.68070 | 86.71213 | 8874 ft | 107 kts | 63° |
| 2026-04-06 15:36 | 27.68161 | 86.71928 | 9052 ft | 89 kts | 75° |
| 2026-04-06 15:36 | 27.68453 | 86.72515 | 9167 ft | 81 kts | 61° |
| 2026-04-06 15:36 | 27.68701 | 86.72997 | 9380 ft | 51 kts | 58° |
| 2026-04-06 15:36 | 27.68761 | 86.73105 | 9452 ft | 5 kts | 59° |
| 2026-04-06 15:37 | 27.68773 | 86.73166 | 9451 ft | 15 kts | 152° |
| 2026-04-06 15:37 | 27.68731 | 86.73173 | 9452 ft | 0 kts | 261° |
| 2026-04-06 15:37 | 27.68738 | 86.73167 | 9453 ft | 7 kts | 11° |
| 2026-04-06 15:38 | 27.68770 | 86.73156 | 9455 ft | 0 kts | 345° |
| 2026-04-06 15:38 | 27.68771 | 86.73156 | 9455 ft | 0 kts | 335° |
| 2026-04-06 15:39 | 27.68727 | 86.73045 | 9406 ft | 47 kts | 239° |
| 2026-04-06 15:40 | 27.68458 | 86.72514 | 9163 ft | 92 kts | 240° |
| 2026-04-06 15:40 | 27.68213 | 86.71840 | 9133 ft | 93 kts | 214° |
| 2026-04-06 15:40 | 27.67597 | 86.71608 | 9161 ft | 89 kts | 227° |
| 2026-04-06 15:40 | 27.67741 | 86.71015 | 9099 ft | 94 kts | 348° |
| 2026-04-06 15:41 | 27.68123 | 86.71510 | 9097 ft | 96 kts | 84° |
| 2026-04-06 15:41 | 27.68269 | 86.72210 | 9167 ft | 89 kts | 56° |
| 2026-04-06 15:41 | 27.68590 | 86.72779 | 9274 ft | 82 kts | 57° |
| 2026-04-06 15:41 | 27.68872 | 86.73249 | 9543 ft | 38 kts | 22° |
| 2026-04-06 15:42 | 27.68879 | 86.73193 | 9492 ft | 0 kts | 230° |
| 2026-04-06 15:42 | 27.68882 | 86.73200 | 9503 ft | 11 kts | 305° |
| 2026-04-06 15:42 | 27.68890 | 86.73153 | 9465 ft | 0 kts | 357° |
| 2026-04-06 15:43 | 27.68894 | 86.73130 | 9454 ft | 6 kts | 265° |
| 2026-04-06 15:43 | 27.68912 | 86.73099 | 9448 ft | 7 kts | 337° |
| 2026-04-06 15:43 | 27.69009 | 86.73000 | 9449 ft | 1 kts | 48° |
| 2026-04-06 15:43 | 27.69079 | 86.72965 | 9454 ft | 25 kts | 331° |
| 2026-04-06 15:44 | 27.69341 | 86.72650 | 9318 ft | 84 kts | 299° |
| 2026-04-06 15:44 | 27.69281 | 86.71969 | 9454 ft | 90 kts | 234° |
| 2026-04-06 15:44 | 27.68903 | 86.71423 | 9563 ft | 92 kts | 238° |
| 2026-04-06 15:44 | 27.68376 | 86.71020 | 9436 ft | 101 kts | 172° |
| 2026-04-06 15:45 | 27.67945 | 86.71565 | 9053 ft | 119 kts | 86° |
| 2026-04-06 15:45 | 27.68330 | 86.72230 | 9180 ft | 95 kts | 60° |
| 2026-04-06 15:45 | 27.68627 | 86.72848 | 9300 ft | 82 kts | 59° |
| 2026-04-06 15:45 | 27.68800 | 86.73155 | 9458 ft | 0 kts | 216° |